Killen, Alabama
Current Conditions -  °F | °C
As of 5:53 PM on Wednesday 22 Oct 2014 (Local Time) from KMSL Reporting Station
Clear Clear  
Wind Chill: 64°   Ceiling: Unl
Heat Index: 64°   Visibility: 10mi
Dew Point: 39°   Wind: 6mph
Humidity: 40%   Direction: 10°N
Pressure: 30.16"   Gusts: NA
Location:  34.86°N, 87.54°W
Report Text: KMSL 222253Z AUTO 01005KT 10SM CLR 18/04 A3016 RMK AO2 SLP212 T01780039
Loading
Personal Weather Stations






























Interactive Weather Map New forecast layout! Learn more

10-Day Weather Forecast

Advertisements
Track Severe Weather on mobile